Monticello, Missouri
Current Conditions -  °F | °C
As of 5:15 PM on Monday 22 Dec 2014 (Local Time) from KEOK Reporting Station
Moderate Fog Moderate Fog  
Wind Chill: 38°   Ceiling: 200
Heat Index: 43°   Visibility: 0.5mi
Dew Point: 43°   Wind: 8mph
Humidity: 100%   Direction: 110°ESE
Pressure: 29.51"   Gusts: NA
Location:  40.12°N, 91.71°W
Report Text: KEOK 222315Z AUTO 11007KT 1/2SM FG OVC002 06/06 A2951 RMK AO2
Loading
Personal Weather Stations






























Interactive Weather Map New forecast layout! Learn more

10-Day Weather Forecast

Advertisements
Track Severe Weather on mobile